createdAt,value
2023-03-29T00:03:21.190Z,1.28
2023-03-29T00:06:21.712Z,1.2599999999999998
2023-03-29T00:09:19.288Z,1.12
2023-03-29T00:12:14.815Z,1.4
2023-03-29T00:15:11.382Z,1.12
2023-03-29T00:21:00.872Z,1.2400000000000002
2023-03-29T00:23:57.076Z,1.3
2023-03-29T00:26:54.650Z,1.6800000000000002
2023-03-29T00:29:50.199Z,1.7
2023-03-29T00:32:46.797Z,2.88
2023-03-29T00:35:43.377Z,3.9
2023-03-29T00:38:41.130Z,1.8199999999999998
2023-03-29T00:41:40.442Z,1.92
2023-03-29T00:44:46.933Z,1.8
2023-03-29T00:47:45.540Z,1.4799999999999998
2023-03-29T00:50:48.024Z,2.16
2023-03-29T00:53:48.579Z,1.4600000000000002
2023-03-29T00:56:48.203Z,2.3400000000000003
2023-03-29T00:59:46.659Z,1.52
2023-03-29T01:02:44.331Z,1.6800000000000002
2023-03-29T01:05:44.823Z,1.7
2023-03-29T01:08:44.367Z,1.3599999999999999
2023-03-29T01:11:45.889Z,1.6
2023-03-29T01:14:46.468Z,1.78
2023-03-29T01:55:10.411Z,1.26
2023-03-29T01:58:07.937Z,1.28
2023-03-29T02:01:10.610Z,1.98
2023-03-29T02:04:17.034Z,1.8
2023-03-29T02:07:15.607Z,1.72
2023-03-29T02:10:14.097Z,1.6400000000000001
2023-03-29T02:13:09.729Z,1.6
2023-03-29T02:16:08.265Z,1.3800000000000001
2023-03-29T02:19:05.807Z,1.3800000000000001
2023-03-29T02:22:08.365Z,1.9599999999999997
2023-03-29T02:25:07.899Z,2.06
2023-03-29T02:28:04.455Z,1.7599999999999998
2023-03-29T02:31:08.031Z,1.56
2023-03-29T02:34:09.541Z,2.0799999999999996
2023-03-29T02:37:15.096Z,2.2399999999999998
2023-03-29T02:40:12.669Z,1.8400000000000003
2023-03-29T02:43:10.191Z,1.56
2023-03-29T02:46:07.804Z,2
2023-03-29T02:49:05.318Z,5.8
2023-03-29T02:52:06.855Z,2.66
2023-03-29T02:55:06.382Z,2.1800000000000006
2023-03-29T02:58:08.022Z,2.06
2023-03-29T03:01:05.500Z,1.6800000000000002
2023-03-29T03:04:02.104Z,1.8199999999999998
2023-03-29T03:06:58.630Z,1.72
2023-03-29T03:09:55.184Z,1.6600000000000001
2023-03-29T03:12:50.741Z,1.72
2023-03-29T03:15:49.575Z,2
2023-03-29T03:18:45.817Z,1.7399999999999998
2023-03-29T03:21:41.386Z,2.52
2023-03-29T03:24:39.008Z,1.7399999999999998
2023-03-29T03:27:34.504Z,1.94
2023-03-29T03:30:30.088Z,1.7
2023-03-29T03:33:27.649Z,1.8199999999999998
2023-03-29T03:36:26.218Z,1.86
2023-03-29T03:39:22.778Z,1.8800000000000001
2023-03-29T03:42:18.305Z,1.6
2023-03-29T03:45:15.900Z,1.6199999999999999
2023-03-29T03:48:11.468Z,1.42
2023-03-29T03:54:13.533Z,3.3600000000000003
2023-03-29T03:57:09.148Z,9
2023-03-29T04:00:09.656Z,11.14
2023-03-29T04:03:05.317Z,6.5600000000000005
2023-03-29T04:06:01.762Z,7.040000000000001
2023-03-29T04:08:57.271Z,4.82
2023-03-29T04:11:52.868Z,4.840000000000001
2023-03-29T04:14:48.404Z,2.9
2023-03-29T04:34:56.462Z,5.119999999999999
2023-03-29T04:37:54.033Z,8.26
2023-03-29T04:40:54.720Z,5.779999999999999
2023-03-29T04:43:50.088Z,5.14
2023-03-29T04:49:51.188Z,4.06
2023-03-29T04:55:55.314Z,4.92
2023-03-29T04:58:50.862Z,4.98
2023-03-29T05:04:51.904Z,7.959999999999999
2023-03-29T05:07:50.503Z,8.28
2023-03-29T05:10:47.076Z,7.76
2023-03-29T05:13:43.637Z,15.9
2023-03-29T05:33:53.799Z,9.06
2023-03-29T05:36:51.139Z,8.080000000000002
2023-03-29T05:39:48.700Z,8.540000000000001
2023-03-29T05:42:47.202Z,7.3
2023-03-29T05:45:42.822Z,6.82
2023-03-29T05:48:38.345Z,6.24
2023-03-29T05:51:34.933Z,5.3
2023-03-29T05:54:30.494Z,4.92
2023-03-29T05:57:26.142Z,7.0200000000000005
2023-03-29T06:00:23.662Z,8.68
2023-03-29T06:03:21.209Z,8.059999999999999
2023-03-29T06:06:18.742Z,7.08
2023-03-29T06:09:15.259Z,6.659999999999999
2023-03-29T06:12:11.881Z,5.779999999999999
2023-03-29T06:15:10.562Z,4.6
2023-03-29T06:18:10.991Z,4.680000000000001
2023-03-29T06:21:08.474Z,5
2023-03-29T06:24:05.069Z,4.24
2023-03-29T06:27:01.636Z,4.459999999999999
2023-03-29T06:29:57.169Z,2.74
2023-03-29T06:32:54.926Z,4.4799999999999995
2023-03-29T06:35:51.343Z,5.359999999999999
2023-03-29T06:38:47.820Z,4.220000000000001
2023-03-29T06:41:44.401Z,3.2399999999999998
2023-03-29T06:44:42.080Z,3.02
2023-03-29T06:47:37.552Z,3.7199999999999998
2023-03-29T06:50:34.065Z,4.840000000000001
2023-03-29T06:53:30.617Z,5.26
2023-03-29T06:56:26.215Z,3.3400000000000007
2023-03-29T07:02:29.336Z,4.119999999999999
2023-03-29T07:05:26.850Z,4.64
2023-03-29T07:08:31.548Z,4.6
2023-03-29T07:11:26.942Z,5.82
2023-03-29T07:14:22.510Z,3.72
2023-03-29T07:17:18.073Z,4.2
2023-03-29T07:20:14.657Z,4.3
2023-03-29T07:23:11.205Z,3.44
2023-03-29T07:25:46.845Z,2.6
2023-03-29T07:31:49.912Z,2.24
2023-03-29T07:34:49.406Z,2.2
2023-03-29T07:37:46.005Z,2.7800000000000002
2023-03-29T07:40:44.576Z,2.3
2023-03-29T07:43:42.113Z,2.3
2023-03-29T07:46:38.655Z,2.72
2023-03-29T07:49:35.207Z,1.9
2023-03-29T07:52:30.789Z,2
2023-03-29T07:55:27.342Z,1.98
2023-03-29T07:58:22.880Z,1.9
2023-03-29T08:01:21.489Z,2.2
2023-03-29T08:04:17.168Z,1.94
2023-03-29T08:10:19.152Z,5.839999999999999
2023-03-29T08:13:15.661Z,3.04
2023-03-29T08:16:13.295Z,3.34
2023-03-29T08:19:08.797Z,3.8599999999999994
2023-03-29T08:25:10.940Z,3.9
2023-03-29T08:28:09.430Z,4.46
2023-03-29T08:31:07.051Z,2.46
2023-03-29T08:34:02.594Z,3.7
2023-03-29T08:36:59.135Z,2.4
2023-03-29T08:39:54.740Z,2.94
2023-03-29T08:43:06.248Z,1.3199999999999998
2023-03-29T08:46:11.889Z,1.86
2023-03-29T08:49:12.359Z,1.48
2023-03-29T08:52:15.855Z,1.94
2023-03-29T08:55:17.356Z,1.5
2023-03-29T08:58:19.920Z,4.9799999999999995
2023-03-29T09:01:18.521Z,2.6
2023-03-29T09:04:19.045Z,1.7
2023-03-29T09:07:15.586Z,1.26
2023-03-29T09:10:13.189Z,2.1399999999999997
2023-03-29T09:13:23.681Z,1.26
2023-03-29T09:16:26.302Z,1.9599999999999997
2023-03-29T09:19:37.772Z,1.54
2023-03-29T09:25:53.849Z,1.26
2023-03-29T09:28:55.305Z,1.3599999999999999
2023-03-29T09:31:54.952Z,2.3
2023-03-29T09:34:59.462Z,1.42
2023-03-29T09:38:00.035Z,1.48
2023-03-29T09:41:03.787Z,1.42
2023-03-29T09:44:07.335Z,1.48
2023-03-29T09:47:08.610Z,1.9600000000000002
2023-03-29T09:50:16.851Z,1.78
2023-03-29T09:53:10.706Z,2.1800000000000006
2023-03-29T09:56:09.259Z,1.9600000000000002
2023-03-29T09:59:05.838Z,2.68
2023-03-29T10:02:08.368Z,2.16
2023-03-29T10:05:04.952Z,2.5
2023-03-29T10:08:13.489Z,2.0599999999999996
2023-03-29T10:11:13.022Z,2.6
2023-03-29T10:14:16.575Z,2.0599999999999996
2023-03-29T10:17:16.125Z,2.22
2023-03-29T10:20:18.662Z,2.2800000000000002
2023-03-29T10:23:20.175Z,1.86
2023-03-29T10:26:23.727Z,2.2600000000000002
2023-03-29T10:29:19.273Z,1.7399999999999998
2023-03-29T10:32:16.852Z,2.1399999999999997
2023-03-29T10:35:18.403Z,1.94
2023-03-29T10:38:16.920Z,1.58
2023-03-29T10:41:16.543Z,2.56
2023-03-29T10:44:27.061Z,2.2399999999999998
2023-03-29T10:47:23.643Z,1.98
2023-03-29T10:50:22.127Z,4.42
2023-03-29T10:53:22.676Z,2.46
2023-03-29T10:56:27.193Z,4.16
2023-03-29T10:59:32.766Z,2.2800000000000002
2023-03-29T11:02:43.346Z,2.92
2023-03-29T11:05:48.802Z,1.52
2023-03-29T11:08:57.345Z,2.3
2023-03-29T11:12:15.016Z,1.2799999999999998
2023-03-29T11:15:15.366Z,2.88
2023-03-29T11:18:28.874Z,2
2023-03-29T11:21:34.447Z,4.24
2023-03-29T11:24:40.981Z,2.22
2023-03-29T11:27:49.511Z,1.92
2023-03-29T11:30:55.069Z,1.8800000000000001
2023-03-29T11:34:04.535Z,1.8
2023-03-29T11:37:09.104Z,1.48
2023-03-29T11:40:19.647Z,6
2023-03-29T11:43:23.229Z,1.4
2023-03-29T11:46:26.770Z,1.6600000000000001
2023-03-29T11:49:27.284Z,2.0799999999999996
2023-03-29T11:52:28.845Z,3.0799999999999996
2023-03-29T11:55:30.515Z,2.36
2023-03-29T11:58:30.900Z,3.3600000000000003
2023-03-29T12:01:33.463Z,2.88
2023-03-29T12:04:36.003Z,5.359999999999999
2023-03-29T12:07:43.545Z,4.540000000000001
2023-03-29T12:10:44.080Z,1.46
2023-03-29T12:13:46.598Z,5.16
2023-03-29T12:16:48.250Z,2.2600000000000002
2023-03-29T12:19:55.699Z,2.12
2023-03-29T12:22:52.275Z,1.6199999999999999
2023-03-29T12:25:52.791Z,1.44
2023-03-29T12:29:06.358Z,2.8200000000000003
2023-03-29T12:32:13.926Z,1.7
2023-03-29T12:35:24.374Z,2.2800000000000002
2023-03-29T12:38:26.715Z,2.06
2023-03-29T12:41:28.491Z,2.3600000000000003
2023-03-29T12:44:24.188Z,1.98
2023-03-29T12:47:25.596Z,2.0200000000000005
2023-03-29T12:50:28.153Z,2.2800000000000002
2023-03-29T12:53:26.665Z,1.42
2023-03-29T12:56:32.266Z,3.4200000000000004
2023-03-29T12:59:37.794Z,2.48
2023-03-29T13:02:39.515Z,2.2
2023-03-29T13:05:37.913Z,2
2023-03-29T13:08:41.422Z,1.54
2023-03-29T13:11:39.971Z,2.5
2023-03-29T13:14:43.489Z,3.72
2023-03-29T13:17:45.248Z,2.8
2023-03-29T13:20:55.530Z,2.5799999999999996
2023-03-29T13:24:03.054Z,3.02
2023-03-29T13:27:09.621Z,1.6600000000000001
2023-03-29T13:30:20.127Z,2.7800000000000002
2023-03-29T13:33:28.683Z,4.38
2023-03-29T13:36:35.209Z,6.319999999999999
2023-03-29T13:39:36.796Z,2.9799999999999995
2023-03-29T13:42:41.317Z,1.8399999999999999
2023-03-29T13:45:45.832Z,4.74
2023-03-29T13:48:49.342Z,2.7600000000000007
2023-03-29T13:51:54.918Z,10
2023-03-29T13:54:57.412Z,2.04
2023-03-29T13:57:58.012Z,1.7
2023-03-29T14:01:00.643Z,1.64
2023-03-29T14:04:04.086Z,0.86
2023-03-29T14:07:06.680Z,1.42
2023-03-29T14:10:05.257Z,1.7
2023-03-29T14:13:04.732Z,1.8199999999999998
2023-03-29T14:16:08.331Z,1.8199999999999998
2023-03-29T14:19:10.817Z,2
2023-03-29T14:22:09.402Z,1.72
2023-03-29T14:25:11.925Z,1.2599999999999998
2023-03-29T14:28:14.468Z,3.06
2023-03-29T14:34:16.560Z,2.92
2023-03-29T14:37:14.131Z,2.9
2023-03-29T14:40:16.696Z,1.92
2023-03-29T14:43:16.209Z,1.54
2023-03-29T14:46:13.795Z,2.42
2023-03-29T14:49:12.287Z,2.38
2023-03-29T14:52:10.899Z,2.0799999999999996
2023-03-29T14:55:10.437Z,1.3400000000000003
2023-03-29T14:58:12.954Z,2.34
2023-03-29T15:01:14.574Z,2.04
2023-03-29T15:04:15.131Z,2.8200000000000003
2023-03-29T15:07:12.596Z,2.38
2023-03-29T15:10:17.194Z,2.3
2023-03-29T15:13:17.730Z,2.1800000000000006
2023-03-29T15:16:15.373Z,2.34
2023-03-29T15:19:13.812Z,3.8600000000000003
2023-03-29T15:22:10.405Z,3.16
2023-03-29T15:25:10.950Z,2.8400000000000003
2023-03-29T15:28:18.493Z,3.2
2023-03-29T15:31:18.075Z,2.42
2023-03-29T15:34:14.609Z,9.580000000000002
2023-03-29T15:37:13.182Z,2.96
2023-03-29T15:40:15.788Z,2.96
2023-03-29T15:43:12.247Z,9.98
2023-03-29T15:46:08.098Z,3.3600000000000003
2023-03-29T15:49:05.339Z,2.16
2023-03-29T15:52:00.881Z,1.8
2023-03-29T15:54:56.470Z,4.66
2023-03-29T15:57:53.110Z,3.7600000000000002
2023-03-29T16:00:51.594Z,4.779999999999999
2023-03-29T16:03:48.173Z,5.24
2023-03-29T16:06:44.690Z,5.779999999999999
2023-03-29T16:09:44.304Z,9.139999999999999
2023-03-29T16:12:41.838Z,7.760000000000001
2023-03-29T16:15:43.352Z,11.64
2023-03-29T16:21:45.449Z,22.82
2023-03-29T16:24:44.008Z,13.6
2023-03-29T16:27:39.570Z,8.76
2023-03-29T16:30:36.116Z,9
2023-03-29T16:33:32.706Z,12.48
2023-03-29T16:36:30.289Z,16.520000000000003
2023-03-29T16:39:26.833Z,17.08
2023-03-29T16:42:22.358Z,17.639999999999997
2023-03-29T16:45:18.935Z,15.939999999999998
2023-03-29T16:48:16.498Z,22.619999999999997
2023-03-29T16:51:12.045Z,37
2023-03-29T16:57:13.193Z,37.519999999999996
2023-03-29T17:00:10.719Z,39.82
2023-03-29T17:03:07.271Z,27.439999999999998
2023-03-29T17:06:05.362Z,37.72
2023-03-29T17:09:01.348Z,34.040000000000006
2023-03-29T17:11:57.886Z,26.079999999999995
2023-03-29T17:14:53.468Z,22.9
2023-03-29T17:17:49.137Z,21.4
2023-03-29T17:20:45.588Z,29.079999999999995
2023-03-29T17:23:41.132Z,38.24
2023-03-29T17:26:39.744Z,48.32000000000001
2023-03-29T17:29:35.259Z,42.779999999999994
2023-03-29T17:32:30.891Z,45.78
2023-03-29T17:35:26.432Z,67.44
2023-03-29T17:38:21.926Z,69.53999999999999
2023-03-29T17:41:22.523Z,66.5
2023-03-29T17:44:20.256Z,37
2023-03-29T17:47:15.835Z,30.4
2023-03-29T17:50:12.536Z,34.64
2023-03-29T17:53:12.733Z,29.339999999999996
2023-03-29T17:56:20.268Z,27.419999999999998
2023-03-29T17:59:21.816Z,33.82000000000001
2023-03-29T18:02:23.511Z,35.940000000000005
2023-03-29T18:05:23.924Z,33.72
2023-03-29T18:08:24.475Z,39.96
2023-03-29T18:11:22.015Z,37
2023-03-29T18:14:22.566Z,36.56
2023-03-29T18:17:24.168Z,31.919999999999998
2023-03-29T18:20:24.682Z,34.839999999999996
2023-03-29T18:23:20.245Z,32.56
2023-03-29T18:26:22.843Z,29.779999999999994
2023-03-29T18:29:23.339Z,33.459999999999994
2023-03-29T18:32:24.909Z,31.439999999999998
2023-03-29T18:35:25.558Z,26.52
2023-03-29T18:38:26.997Z,22.4
2023-03-29T18:41:27.538Z,21.119999999999997
2023-03-29T18:44:30.093Z,26.919999999999998
2023-03-29T18:50:43.198Z,33.239999999999995
2023-03-29T18:53:48.675Z,27.139999999999997
2023-03-29T18:56:50.254Z,31.76
2023-03-29T18:59:50.787Z,27.880000000000003
2023-03-29T19:02:51.371Z,22.98
2023-03-29T19:05:54.854Z,22.5
2023-03-29T19:08:53.410Z,20.34
2023-03-29T19:11:48.921Z,24.56
2023-03-29T19:14:55.505Z,25.3
2023-03-29T19:17:56.089Z,17.52
2023-03-29T19:20:53.618Z,15.14
2023-03-29T19:23:53.178Z,15.339999999999998
2023-03-29T19:26:51.726Z,17.060000000000002
2023-03-29T19:29:53.412Z,31.5
2023-03-29T19:32:49.896Z,31.72
2023-03-29T19:35:51.426Z,16.22
2023-03-29T19:38:47.868Z,112.34
2023-03-29T19:41:44.474Z,22.5
2023-03-29T19:44:45.026Z,59
2023-03-29T19:47:57.822Z,31.880000000000003
2023-03-29T19:50:53.119Z,13.580000000000002
2023-03-29T19:53:50.215Z,10.82
2023-03-29T19:56:52.566Z,38.779999999999994
2023-03-29T20:00:01.718Z,13.2
2023-03-29T20:02:59.390Z,12.620000000000001
2023-03-29T20:06:00.842Z,13.2
2023-03-29T20:09:06.224Z,9.940000000000001
2023-03-29T20:12:07.902Z,10.940000000000001
2023-03-29T20:15:04.465Z,14.76
2023-03-29T20:18:08.144Z,13.6
2023-03-29T20:24:15.137Z,13.440000000000001
2023-03-29T20:27:10.625Z,13.14
2023-03-29T20:30:09.210Z,12.56
2023-03-29T20:33:04.920Z,14.439999999999998
2023-03-29T20:36:00.455Z,12.24
2023-03-29T20:39:03.271Z,8.799999999999999
2023-03-29T20:42:00.414Z,8.620000000000001
2023-03-29T20:44:59.981Z,8.639999999999999
2023-03-29T20:47:57.927Z,10.040000000000001
2023-03-29T20:50:58.060Z,8.819999999999999
2023-03-29T20:54:01.663Z,12.080000000000002
2023-03-29T20:56:58.250Z,11.479999999999999
2023-03-29T20:59:54.759Z,10.000000000000002
2023-03-29T21:02:54.385Z,9.34
2023-03-29T21:05:53.866Z,9.139999999999999
2023-03-29T21:08:52.750Z,7.959999999999999
2023-03-29T21:11:48.939Z,6.4
2023-03-29T21:14:51.540Z,5.62
2023-03-29T21:17:47.116Z,5.54
2023-03-29T21:20:44.613Z,4.9
2023-03-29T21:23:45.156Z,4.4799999999999995
2023-03-29T21:26:41.730Z,5.58
2023-03-29T21:29:37.268Z,7.279999999999999
2023-03-29T21:32:32.906Z,13.14
2023-03-29T21:35:28.462Z,9.84
2023-03-29T21:38:28.958Z,10
2023-03-29T21:41:24.508Z,9.360000000000001
2023-03-29T21:44:20.092Z,10.540000000000001
2023-03-29T21:47:15.654Z,8.18
2023-03-29T21:50:11.204Z,8.84
2023-03-29T21:53:08.793Z,12.179999999999998
2023-03-29T21:56:06.369Z,5.779999999999999
2023-03-29T21:59:06.867Z,5.220000000000001
2023-03-29T22:05:07.986Z,3.12
2023-03-29T22:08:09.568Z,3.0599999999999996
2023-03-29T22:11:11.129Z,3.16
2023-03-29T22:14:07.624Z,3.06
2023-03-29T22:17:05.179Z,3.9199999999999995
2023-03-29T22:20:12.720Z,4.239999999999999
2023-03-29T22:23:09.299Z,4.619999999999999
2023-03-29T22:26:06.871Z,9.879999999999999
2023-03-29T22:29:03.383Z,13.580000000000002
2023-03-29T22:31:59.960Z,27.919999999999998
2023-03-29T22:34:56.520Z,22.76
2023-03-29T22:37:54.070Z,11.419999999999998
2023-03-29T22:40:49.613Z,7.06
2023-03-29T22:43:46.183Z,7.24
2023-03-29T22:46:42.747Z,6.04
2023-03-29T22:49:38.312Z,5.2
2023-03-29T22:52:33.858Z,5.24
2023-03-29T22:55:29.436Z,4.68
2023-03-29T22:58:24.972Z,5.5
2023-03-29T23:01:20.523Z,3.84
2023-03-29T23:04:17.134Z,4.14
2023-03-29T23:07:12.670Z,5.040000000000001
2023-03-29T23:13:20.764Z,5.08
2023-03-29T23:16:20.329Z,4.82
2023-03-29T23:19:16.882Z,3.8200000000000003
2023-03-29T23:22:13.420Z,4.32
2023-03-29T23:25:09.000Z,3.9
2023-03-29T23:28:04.512Z,3.9799999999999995
2023-03-29T23:31:02.920Z,4.4399999999999995
2023-03-29T23:33:59.647Z,4.46
2023-03-29T23:36:58.189Z,3.8599999999999994
2023-03-29T23:39:53.744Z,4.0200000000000005
2023-03-29T23:45:55.851Z,4.5600000000000005
2023-03-29T23:48:52.388Z,3.94
2023-03-29T23:51:50.999Z,3.7399999999999998
2023-03-29T23:54:49.529Z,4.1
2023-03-29T23:57:46.123Z,4.959999999999999
